Sao Joao, Brazil
Current Conditions -  °F | °C
As of 6:00 AM on Friday 31 Oct 2014 (Local Time) from SBCA Reporting Station
Few Clouds Few Clouds  
Wind Chill: 64°   Ceiling: Unl
Heat Index: 64°   Visibility: 6mi
Dew Point: 61°   Wind: 21mph
Humidity: 88%   Direction: 30°NNE
Pressure: 29.91"   Gusts: NA
Location:  25.83°S, 52.73°W
Report Text: SBCA 310800Z 03018KT 9999 FEW010 18/16 Q1013
Loading
Personal Weather Stations






























Interactive Weather Map
Tropical Storm Tracking
New forecast layout! Learn more

10-Day Weather Forecast

Advertisements
Track Severe Weather on mobile